Time;durP1;ratioP1;P1;durP2;ratioP2;P2;SDS_P1;SDS_P2;PMS_P1;PMS_P2;Temp;Humidity;BMP_temperature;BMP_pressure;BME280_temperature;BME280_humidity;BME280_pressure;Samples;Min_cycle;Max_cycle;Signal;HPM_P1;HPM_P2
2021/06/12 00:01:23;;;;;;;8.88;6.43;;;;;;;17.96;73.25;101204.16;5061123;28;20098;-50
2021/06/12 00:03:49;;;;;;;9.90;6.40;;;;;;;17.98;73.01;101197.03;5063462;28;20035;-50
2021/06/12 00:06:15;;;;;;;9.52;6.80;;;;;;;17.97;73.21;101195.28;5060640;28;20431;-51
2021/06/12 00:08:41;;;;;;;10.45;6.85;;;;;;;17.90;73.22;101189.25;5062057;27;20190;-50
2021/06/12 00:11:07;;;;;;;9.10;6.53;;;;;;;17.96;73.35;101193.59;5062195;27;20294;-50
2021/06/12 00:13:33;;;;;;;13.07;6.78;;;;;;;17.76;74.21;101194.06;5064092;27;20021;-51
2021/06/12 00:15:58;;;;;;;11.75;7.05;;;;;;;17.75;73.55;101190.56;5076496;27;20147;-53
2021/06/12 00:18:25;;;;;;;11.02;8.23;;;;;;;17.75;74.54;101190.56;5051680;28;20044;-51
2021/06/12 00:20:53;;;;;;;10.65;7.18;;;;;;;17.63;75.34;101191.75;5066376;27;20259;-51
2021/06/12 00:23:20;;;;;;;10.20;6.75;;;;;;;17.70;75.10;101200.38;5059509;27;20491;-52
2021/06/12 00:25:47;;;;;;;10.55;6.60;;;;;;;17.67;74.99;101196.03;5061077;28;20504;-50
2021/06/12 00:28:13;;;;;;;9.52;6.72;;;;;;;17.69;74.60;101191.59;5066240;28;20680;-51
2021/06/12 00:30:39;;;;;;;9.65;6.53;;;;;;;17.70;74.66;101193.31;5060948;28;20137;-49
2021/06/12 00:33:16;;;;;;;7.00;5.45;;;;;;;17.63;75.01;101190.88;5062147;27;20036;-52
2021/06/12 00:35:43;;;;;;;9.57;7.30;;;;;;;17.65;74.78;101200.50;5062323;28;20124;-50
2021/06/12 00:38:09;;;;;;;9.73;6.70;;;;;;;17.67;75.80;101185.47;5064455;28;20116;-51
2021/06/12 00:40:35;;;;;;;12.25;8.05;;;;;;;17.50;76.15;101180.63;5062746;27;20043;-50
2021/06/12 00:43:03;;;;;;;11.45;6.72;;;;;;;17.38;76.92;101169.47;5062226;28;20483;-50
2021/06/12 00:45:31;;;;;;;11.10;7.38;;;;;;;17.31;77.45;101172.28;5062024;28;20636;-49
2021/06/12 00:47:58;;;;;;;11.00;7.10;;;;;;;17.30;77.04;101178.47;5061764;28;20411;-52
2021/06/12 00:50:27;;;;;;;10.50;6.45;;;;;;;17.33;76.77;101181.06;5060693;28;20101;-52
2021/06/12 00:52:53;;;;;;;9.23;6.35;;;;;;;17.46;75.14;101168.38;5064050;27;20036;-52
2021/06/12 00:55:19;;;;;;;10.07;6.80;;;;;;;17.44;75.86;101175.47;5061455;28;20495;-50
2021/06/12 00:57:45;;;;;;;10.82;6.75;;;;;;;17.28;76.47;101168.81;5060159;28;20159;-51
2021/06/12 01:00:14;;;;;;;9.75;6.53;;;;;;;17.08;77.60;101167.53;5062715;28;20044;-52
2021/06/12 01:02:40;;;;;;;8.65;6.25;;;;;;;17.02;77.13;101165.91;5063358;28;20457;-51
2021/06/12 01:05:08;;;;;;;9.68;6.35;;;;;;;17.26;75.83;101166.22;5057314;28;20047;-52
2021/06/12 01:07:34;;;;;;;11.00;6.50;;;;;;;17.10;76.94;101163.09;5064478;27;20024;-51
2021/06/12 01:10:00;;;;;;;9.98;6.47;;;;;;;17.10;77.30;101155.19;5062866;28;20032;-52
2021/06/12 01:12:37;;;;;;;10.48;6.90;;;;;;;16.99;77.37;101155.44;5059130;28;20045;-50
2021/06/12 01:15:06;;;;;;;9.93;6.65;;;;;;;16.85;77.50;101161.00;5059369;27;20661;-52
2021/06/12 01:17:43;;;;;;;10.20;6.80;;;;;;;16.80;78.30;101154.09;5059420;27;20055;-49
2021/06/12 01:20:21;;;;;;;9.98;6.55;;;;;;;16.71;78.43;101159.56;5055610;27;20036;-50
2021/06/12 01:22:46;;;;;;;9.40;6.93;;;;;;;16.73;78.48;101160.44;5057297;28;20044;-49
2021/06/12 01:25:38;;;;;;;10.02;6.43;;;;;;;16.61;78.72;101157.13;5060496;28;20659;-50
2021/06/12 01:28:27;;;;;;;10.68;6.65;;;;;;;16.63;77.89;101160.63;5058640;28;22334;-51
2021/06/12 01:30:56;;;;;;;10.45;6.50;;;;;;;16.50;79.41;101156.50;5088332;27;21632;-51
2021/06/12 01:33:22;;;;;;;10.48;6.35;;;;;;;16.47;79.71;101160.06;5056975;28;20040;-51
2021/06/12 01:35:52;;;;;;;9.55;6.20;;;;;;;16.45;78.96;101159.25;5058862;27;20184;-49
2021/06/12 01:38:25;;;;;;;11.02;7.03;;;;;;;16.56;79.04;101160.78;5062960;27;20036;-50
2021/06/12 01:40:53;;;;;;;10.88;6.97;;;;;;;16.47;80.30;101156.56;5042875;28;20500;-51
2021/06/12 01:43:20;;;;;;;10.60;6.63;;;;;;;16.54;79.73;101155.53;5060824;27;20032;-54
2021/06/12 01:45:47;;;;;;;11.27;7.05;;;;;;;16.52;79.38;101162.63;5061300;28;20035;-53
2021/06/12 01:48:14;;;;;;;10.85;6.80;;;;;;;16.49;80.59;101173.22;5063266;27;20094;-50
2021/06/12 01:50:40;;;;;;;8.95;6.68;;;;;;;16.55;80.04;101175.75;5056588;28;20036;-53
2021/06/12 01:53:08;;;;;;;10.85;6.82;;;;;;;16.71;77.97;101180.69;5060495;28;20523;-51
2021/06/12 01:55:35;;;;;;;10.13;6.88;;;;;;;16.74;79.25;101178.88;5061364;27;20051;-49
2021/06/12 01:58:07;;;;;;;11.48;7.20;;;;;;;16.67;79.25;101172.84;5064159;28;20068;-52
2021/06/12 02:00:33;;;;;;;11.20;6.75;;;;;;;16.67;79.94;101172.84;5055792;28;20051;-51
2021/06/12 02:03:00;;;;;;;9.40;6.50;;;;;;;16.62;80.36;101179.13;5062498;28;20040;-51
2021/06/12 02:05:26;;;;;;;9.77;6.88;;;;;;;16.68;79.71;101185.16;5059597;28;20272;-50
2021/06/12 02:07:55;;;;;;;12.27;6.65;;;;;;;16.69;79.03;101175.44;5056029;28;20044;-51
2021/06/12 02:10:25;;;;;;;;;;;;;;;16.82;79.01;101170.75;5063985;27;20111;-49
2021/06/12 02:12:53;;;;;;;10.48;6.45;;;;;;;16.95;78.49;101176.69;5061766;28;19919;-51
2021/06/12 02:15:21;;;;;;;9.88;6.45;;;;;;;16.85;79.68;101184.78;5054495;28;20045;-51
2021/06/12 02:17:49;;;;;;;9.35;6.60;;;;;;;16.86;79.68;101185.63;5056799;28;20467;-52
2021/06/12 02:20:16;;;;;;;9.10;5.75;;;;;;;17.01;78.04;101184.44;5060824;27;20055;-53
2021/06/12 02:22:52;;;;;;;10.20;6.68;;;;;;;16.95;78.82;101182.81;5054906;27;20067;-52
2021/06/12 02:25:20;;;;;;;9.88;6.80;;;;;;;16.86;79.69;101182.97;5055563;27;20024;-50
2021/06/12 02:27:53;;;;;;;13.48;7.60;;;;;;;16.84;79.86;101190.94;5057580;28;20035;-53
2021/06/12 02:30:21;;;;;;;10.10;7.20;;;;;;;16.86;79.00;101193.53;5056387;27;20107;-50
2021/06/12 02:32:49;;;;;;;;;;;;;;;16.94;79.14;101202.19;5045834;28;20044;-50
2021/06/12 02:35:15;;;;;;;9.82;6.93;;;;;;;16.90;78.89;101197.03;5058030;28;19923;-51
2021/06/12 02:37:43;;;;;;;9.40;7.00;;;;;;;17.00;78.43;101193.25;5062766;28;20459;-54
2021/06/12 02:40:09;;;;;;;10.32;7.05;;;;;;;16.90;79.50;101200.53;5057780;28;20059;-50
2021/06/12 02:42:35;;;;;;;10.13;6.93;;;;;;;16.92;79.29;101198.75;5056940;27;20048;-50
2021/06/12 02:45:04;;;;;;;9.02;7.20;;;;;;;17.06;77.22;101203.72;5063754;28;20042;-51
2021/06/12 02:47:31;;;;;;;10.70;7.45;;;;;;;17.11;77.95;101211.50;5055412;28;20482;-50
2021/06/12 02:49:59;;;;;;;10.18;7.25;;;;;;;17.08;78.00;101206.31;5058335;27;20458;-52
2021/06/12 02:52:30;;;;;;;10.80;7.03;;;;;;;17.05;78.81;101203.75;5059299;28;20047;-50
2021/06/12 02:55:01;;;;;;;9.40;6.70;;;;;;;17.00;79.15;101196.78;5063432;28;20032;-53
2021/06/12 02:57:29;;;;;;;9.50;7.05;;;;;;;17.02;78.19;101194.13;5058729;28;20449;-51
2021/06/12 02:59:57;;;;;;;11.20;7.20;;;;;;;16.98;79.17;101201.22;5060473;27;20032;-51
2021/06/12 03:02:23;;;;;;;;;;;;;;;16.98;79.43;101198.59;5063899;28;20286;-52
2021/06/12 03:04:52;;;;;;;10.85;7.03;;;;;;;17.05;78.01;101203.75;5057900;27;19920;-54
2021/06/12 03:07:19;;;;;;;9.68;7.35;;;;;;;17.04;79.03;101204.63;5037416;27;20321;-50
2021/06/12 03:09:44;;;;;;;9.70;7.03;;;;;;;17.05;79.07;101204.59;5060444;28;20123;-50
2021/06/12 03:12:11;;;;;;;9.02;6.68;;;;;;;17.06;78.96;101197.53;5056207;28;20042;-50
2021/06/12 03:14:41;;;;;;;11.88;7.10;;;;;;;17.07;78.72;101196.63;5062025;27;20585;-52
2021/06/12 03:17:09;;;;;;;10.55;7.25;;;;;;;17.06;78.36;101197.53;5063319;27;20040;-51
2021/06/12 03:19:36;;;;;;;8.27;7.00;;;;;;;17.00;79.55;101199.44;5065894;27;20461;-52
2021/06/12 03:22:04;;;;;;;10.02;6.40;;;;;;;17.00;78.65;101196.78;5062772;28;20334;-50
2021/06/12 03:24:31;;;;;;;10.93;6.85;;;;;;;17.12;77.51;101205.34;5063885;27;20128;-49
2021/06/12 03:26:59;;;;;;;9.27;7.13;;;;;;;17.13;77.90;101197.38;5063935;28;20036;-50
2021/06/12 03:29:29;;;;;;;9.35;6.72;;;;;;;17.11;78.18;101193.03;5062011;27;20045;-51
2021/06/12 03:31:57;;;;;;;9.35;6.68;;;;;;;17.13;78.67;101196.50;5065093;28;20067;-50
2021/06/12 03:34:22;;;;;;;9.55;6.50;;;;;;;17.16;77.81;101201.72;5069086;27;20036;-49
2021/06/12 03:36:50;;;;;;;9.35;6.63;;;;;;;17.20;78.65;101200.75;5061098;28;20023;-52
2021/06/12 03:39:16;;;;;;;9.65;6.95;;;;;;;17.21;77.68;101205.13;5060126;27;20138;-50
2021/06/12 03:41:42;;;;;;;9.30;6.30;;;;;;;17.25;77.76;101195.34;5060461;27;20086;-49
2021/06/12 03:44:09;;;;;;;8.40;6.65;;;;;;;17.21;78.30;101186.63;5067243;27;20500;-49
2021/06/12 03:46:35;;;;;;;9.57;6.95;;;;;;;17.14;78.59;101182.38;5064208;28;20380;-51
2021/06/12 03:49:01;;;;;;;10.20;7.22;;;;;;;17.14;79.63;101175.34;5065229;28;20098;-51
2021/06/12 03:51:28;;;;;;;8.00;6.30;;;;;;;17.18;77.45;101173.47;5079959;27;20894;-50
2021/06/12 03:53:54;;;;;;;9.40;6.40;;;;;;;17.19;77.35;101169.94;5068002;27;20047;-52
2021/06/12 03:56:31;;;;;;;10.38;6.55;;;;;;;17.12;78.83;101173.63;5068753;27;20063;-52
2021/06/12 03:58:57;;;;;;;9.13;6.55;;;;;;;17.10;79.53;101181.59;5073215;27;20193;-53
2021/06/12 04:01:23;;;;;;;8.75;6.45;;;;;;;17.09;79.00;101186.91;5070151;27;20446;-50
2021/06/12 04:03:48;;;;;;;9.98;7.05;;;;;;;17.01;80.15;101187.09;5067953;28;20028;-53
2021/06/12 04:06:14;;;;;;;10.10;6.68;;;;;;;17.03;80.18;101193.22;5072872;27;20488;-51
2021/06/12 04:08:40;;;;;;;9.40;6.53;;;;;;;17.05;80.50;101201.09;5070027;28;20787;-49
2021/06/12 04:11:08;;;;;;;11.18;6.40;;;;;;;17.08;78.99;101204.53;5066864;28;20044;-50
2021/06/12 04:13:33;;;;;;;12.30;6.82;;;;;;;17.11;78.94;101216.78;5072144;27;20408;-50
2021/06/12 04:16:00;;;;;;;9.65;7.28;;;;;;;17.06;80.65;101219.56;5073176;28;20038;-51
2021/06/12 04:18:26;;;;;;;9.23;6.68;;;;;;;17.10;79.19;101221.22;5069997;27;20072;-49
2021/06/12 04:20:51;;;;;;;8.55;5.85;;;;;;;17.18;76.83;101214.00;5089012;27;20571;-50
2021/06/12 04:23:17;;;;;;;10.20;6.82;;;;;;;17.34;77.83;101221.53;5071610;27;20072;-52
2021/06/12 04:25:43;;;;;;;12.77;7.15;;;;;;;17.33;78.41;101219.81;5070282;28;20492;-51
2021/06/12 04:28:09;;;;;;;10.20;6.63;;;;;;;17.38;77.72;101220.56;5070776;28;20028;-50
2021/06/12 04:30:38;;;;;;;9.93;6.65;;;;;;;17.47;78.44;101216.81;5070068;28;20094;-50
2021/06/12 04:33:04;;;;;;;11.77;7.47;;;;;;;17.47;79.88;101212.41;5071463;27;20033;-50
2021/06/12 04:35:31;;;;;;;12.40;7.90;;;;;;;17.73;76.60;101202.09;5065654;28;20042;-49
2021/06/12 04:38:01;;;;;;;15.10;9.95;;;;;;;17.87;77.42;101200.81;5072408;28;20044;-49
2021/06/12 04:40:29;;;;;;;13.68;8.18;;;;;;;17.87;78.70;101202.56;5070183;27;20097;-50
2021/06/12 04:42:58;;;;;;;15.02;8.85;;;;;;;17.73;77.79;101196.78;5072901;28;20445;-50
2021/06/12 04:45:24;;;;;;;13.65;8.73;;;;;;;17.73;77.89;101205.59;5070510;27;20055;-49
2021/06/12 04:47:50;;;;;;;18.52;9.10;;;;;;;17.76;77.37;101196.72;5070603;27;20494;-51
2021/06/12 04:50:17;;;;;;;14.70;8.63;;;;;;;17.72;77.64;101195.06;5075619;28;20044;-49
2021/06/12 04:52:43;;;;;;;14.85;9.35;;;;;;;17.70;78.26;101193.31;5070241;27;20291;-52
2021/06/12 04:55:10;;;;;;;14.65;8.45;;;;;;;17.73;77.71;101187.06;5072039;28;20051;-51
2021/06/12 04:57:37;;;;;;;15.05;8.38;;;;;;;17.72;79.00;101190.63;5058683;28;20131;-50
2021/06/12 05:00:06;;;;;;;12.75;7.35;;;;;;;17.87;76.97;101181.41;5066389;27;20462;-50
2021/06/12 05:02:32;;;;;;;13.55;8.32;;;;;;;17.85;77.94;101183.25;5096390;27;20055;-52
2021/06/12 05:04:58;;;;;;;15.52;8.85;;;;;;;17.94;77.62;101183.00;5068469;28;20044;-50
2021/06/12 05:07:24;;;;;;;17.45;9.50;;;;;;;18.20;76.30;101177.00;5070447;27;20039;-50
2021/06/12 05:09:50;;;;;;;13.43;8.75;;;;;;;18.18;76.40;101180.63;5070171;28;20112;-50
2021/06/12 05:12:16;;;;;;;15.68;8.82;;;;;;;18.47;75.34;101178.91;5068817;28;20064;-50
2021/06/12 05:14:44;;;;;;;13.80;9.25;;;;;;;18.49;75.44;101163.84;5072095;27;20036;-50
2021/06/12 05:17:12;;;;;;;14.23;8.98;;;;;;;18.59;75.24;101170.59;5068334;28;20053;-50
2021/06/12 05:19:38;;;;;;;14.68;8.77;;;;;;;18.41;73.84;101172.00;5069667;28;20126;-52
2021/06/12 05:22:04;;;;;;;13.88;9.25;;;;;;;18.33;76.51;101181.94;5074568;28;20032;-51
2021/06/12 05:24:30;;;;;;;13.23;8.48;;;;;;;18.31;77.16;101183.78;5067567;28;20059;-52
2021/06/12 05:26:56;;;;;;;16.45;9.60;;;;;;;18.45;76.71;101173.66;5074866;28;20107;-51
2021/06/12 05:29:21;;;;;;;17.85;10.50;;;;;;;18.79;75.85;101179.69;5071890;27;20051;-51
2021/06/12 05:31:47;;;;;;;16.08;9.80;;;;;;;18.74;75.81;101182.50;5071117;28;20044;-50
2021/06/12 05:34:12;;;;;;;16.55;10.15;;;;;;;18.63;76.27;101180.16;5072442;28;20032;-50
2021/06/12 05:36:38;;;;;;;19.20;11.20;;;;;;;18.55;76.77;101188.38;5065236;28;20550;-50
2021/06/12 05:39:05;;;;;;;19.15;12.80;;;;;;;18.50;76.75;101189.41;5071613;27;20032;-52
2021/06/12 05:41:31;;;;;;;23.48;13.43;;;;;;;18.45;77.76;101191.31;5056365;28;20036;-49
2021/06/12 05:43:57;;;;;;;19.98;11.82;;;;;;;18.46;77.55;101187.78;5066955;27;20044;-50
2021/06/12 05:46:23;;;;;;;20.08;12.48;;;;;;;18.74;76.07;101189.59;5068266;27;20555;-51
2021/06/12 05:48:48;;;;;;;21.48;12.90;;;;;;;18.71;76.64;101195.84;5074415;28;20055;-50
2021/06/12 05:51:14;;;;;;;17.95;11.25;;;;;;;18.74;76.83;101198.38;5068874;27;20043;-52
2021/06/12 05:53:40;;;;;;;18.05;10.48;;;;;;;18.53;76.25;101189.31;5070428;28;20313;-50
2021/06/12 05:56:05;;;;;;;14.35;9.13;;;;;;;18.74;75.34;101193.09;5069362;28;20141;-50
2021/06/12 05:58:34;;;;;;;16.33;10.05;;;;;;;18.62;76.14;101194.34;5067688;27;20054;-50
2021/06/12 06:00:59;;;;;;;15.02;8.55;;;;;;;18.99;74.68;101201.19;5069675;28;20032;-49
2021/06/12 06:03:25;;;;;;;14.32;8.80;;;;;;;18.88;75.08;101203.28;5068120;28;20044;-50
2021/06/12 06:05:51;;;;;;;11.27;6.93;;;;;;;18.98;73.41;101194.16;5068491;28;20055;-49
2021/06/12 06:08:17;;;;;;;12.18;6.85;;;;;;;19.02;72.95;101197.56;5068834;27;20119;-50
2021/06/12 06:10:43;;;;;;;12.27;7.65;;;;;;;18.98;72.76;101199.47;5068184;28;20057;-51
2021/06/12 06:13:08;;;;;;;11.93;6.78;;;;;;;18.97;75.07;101204.78;5070392;28;20043;-50
2021/06/12 06:15:34;;;;;;;12.30;7.55;;;;;;;19.00;73.72;101197.63;5065817;28;20039;-49
2021/06/12 06:18:00;;;;;;;12.80;7.30;;;;;;;18.84;74.47;101199.84;5067521;27;20048;-50
2021/06/12 06:20:26;;;;;;;11.68;7.85;;;;;;;18.86;73.69;101200.66;5051631;28;20040;-51
2021/06/12 06:22:52;;;;;;;13.00;9.48;;;;;;;18.88;72.58;101200.66;5069380;28;20037;-51
2021/06/12 06:25:18;;;;;;;14.23;9.68;;;;;;;18.95;73.13;101201.31;5068625;27;20067;-50
2021/06/12 06:27:44;;;;;;;13.05;9.50;;;;;;;18.74;73.31;101198.38;5066228;28;20064;-51
2021/06/12 06:30:10;;;;;;;11.90;8.30;;;;;;;18.80;73.52;101206.16;5067643;28;20685;-51
2021/06/12 06:32:37;;;;;;;11.25;7.93;;;;;;;18.69;72.75;101216.19;5066963;27;20495;-51
2021/06/12 06:35:04;;;;;;;10.95;7.18;;;;;;;18.72;73.21;101224.91;5099110;27;20028;-51
2021/06/12 06:37:29;;;;;;;7.22;5.68;;;;;;;18.80;72.57;101219.41;5068307;27;20040;-51
2021/06/12 06:39:55;;;;;;;8.07;6.20;;;;;;;18.65;72.44;101220.72;5068898;28;20036;-51
2021/06/12 06:42:21;;;;;;;7.88;5.13;;;;;;;18.53;72.89;101218.44;5067917;27;20036;-50
2021/06/12 06:44:47;;;;;;;9.00;6.00;;;;;;;18.69;73.57;101222.38;5066740;27;20074;-50
2021/06/12 06:47:13;;;;;;;7.93;5.53;;;;;;;18.68;73.59;101225.94;5069678;27;20101;-51
2021/06/12 06:49:39;;;;;;;9.13;5.18;;;;;;;18.98;73.18;101233.00;5065102;27;20101;-51
2021/06/12 06:52:05;;;;;;;10.07;5.53;;;;;;;18.66;72.40;101227.75;5068303;28;20393;-50
2021/06/12 06:54:31;;;;;;;7.80;5.85;;;;;;;18.66;72.77;101235.72;5071632;28;20048;-50
2021/06/12 06:56:57;;;;;;;7.72;5.72;;;;;;;18.86;71.36;101245.69;5063543;28;20273;-50
2021/06/12 06:59:23;;;;;;;8.43;5.70;;;;;;;18.74;73.03;101245.19;5073685;27;20101;-50
2021/06/12 07:01:49;;;;;;;6.88;5.80;;;;;;;18.77;73.28;101248.59;5067608;27;20033;-51
2021/06/12 07:04:15;;;;;;;9.20;7.25;;;;;;;18.57;72.16;101243.91;5066687;28;20038;-50
2021/06/12 07:06:41;;;;;;;6.60;5.68;;;;;;;18.77;71.06;101250.41;5071212;28;20037;-52
2021/06/12 07:09:07;;;;;;;5.88;5.05;;;;;;;18.56;70.96;101242.16;5064088;28;20051;-50
2021/06/12 07:11:32;;;;;;;6.95;4.95;;;;;;;18.77;71.09;101240.66;5052601;28;20044;-51
2021/06/12 07:13:58;;;;;;;6.10;4.60;;;;;;;18.71;71.42;101239.06;5070050;28;20089;-51
2021/06/12 07:16:27;;;;;;;7.13;4.82;;;;;;;18.78;71.43;101246.84;5066573;27;20032;-50
2021/06/12 07:18:54;;;;;;;7.25;5.28;;;;;;;18.78;70.74;101237.13;5069126;28;20036;-51
2021/06/12 07:21:20;;;;;;;6.75;5.57;;;;;;;18.92;71.01;101238.53;5067873;28;20097;-49
2021/06/12 07:24:00;;;;;;;6.72;5.40;;;;;;;18.86;71.57;101240.41;5064245;28;20044;-52
2021/06/12 07:26:26;;;;;;;6.63;5.05;;;;;;;19.04;71.88;101241.66;5066864;28;20534;-50
2021/06/12 07:28:52;;;;;;;7.05;5.82;;;;;;;19.14;71.83;101238.72;5071867;28;20036;-50
2021/06/12 07:31:17;;;;;;;8.23;5.70;;;;;;;19.02;70.60;101243.50;5064814;28;20103;-50
2021/06/12 07:33:43;;;;;;;8.63;5.78;;;;;;;19.01;72.29;101243.50;5074710;28;20567;-51
2021/06/12 07:36:08;;;;;;;8.30;5.55;;;;;;;19.07;71.46;101245.13;5065078;27;20075;-51
2021/06/12 07:38:34;;;;;;;8.90;6.05;;;;;;;19.29;70.50;101259.44;5066409;28;20055;-51
2021/06/12 07:41:00;;;;;;;7.75;6.05;;;;;;;19.23;70.89;101256.97;5067360;28;20028;-51
2021/06/12 07:43:26;;;;;;;9.23;6.05;;;;;;;19.01;71.22;101257.66;5053215;27;20601;-52
2021/06/12 07:45:52;;;;;;;9.57;5.60;;;;;;;19.04;72.18;101254.03;5067482;28;20570;-50
2021/06/12 07:48:18;;;;;;;6.97;5.80;;;;;;;18.85;72.11;101253.69;5067412;28;20044;-53
2021/06/12 07:50:44;;;;;;;8.38;5.93;;;;;;;19.01;72.99;101254.13;5033348;28;20105;-51
2021/06/12 07:53:10;;;;;;;9.20;6.70;;;;;;;18.65;72.74;101252.50;5063198;28;20351;-52
2021/06/12 07:55:36;;;;;;;8.27;6.47;;;;;;;18.89;72.43;101260.66;5045029;27;20047;-50
2021/06/12 07:58:02;;;;;;;10.82;7.18;;;;;;;18.96;72.06;101264.00;5059134;28;20068;-51
2021/06/12 08:00:28;;;;;;;9.88;8.55;;;;;;;18.87;72.05;101271.31;5071205;27;20044;-54
2021/06/12 08:02:54;;;;;;;11.50;8.90;;;;;;;18.70;72.48;101277.03;5072254;27;20036;-50
2021/06/12 08:05:20;;;;;;;11.95;8.90;;;;;;;18.60;73.07;101265.00;5066336;28;20133;-49
2021/06/12 08:07:46;;;;;;;10.90;9.30;;;;;;;18.63;72.97;101269.34;5073810;28;20103;-50
2021/06/12 08:10:12;;;;;;;11.48;8.90;;;;;;;18.49;72.86;101267.09;5071661;28;20388;-51
2021/06/12 08:12:40;;;;;;;12.77;9.52;;;;;;;18.53;73.63;101279.34;5068302;27;20122;-52
2021/06/12 08:15:07;;;;;;;12.27;10.63;;;;;;;18.54;73.95;101262.53;5069237;28;20036;-52
2021/06/12 08:17:33;;;;;;;13.38;10.60;;;;;;;18.40;73.94;101277.94;5067883;28;20391;-49
2021/06/12 08:19:59;;;;;;;14.48;11.63;;;;;;;18.65;73.25;101281.63;5071758;27;20370;-51
2021/06/12 08:22:25;;;;;;;14.80;11.43;;;;;;;18.51;73.70;101279.38;5066161;27;20142;-50
2021/06/12 08:24:50;;;;;;;13.77;12.02;;;;;;;18.95;73.03;101289.59;5070469;28;20497;-51
2021/06/12 08:27:16;;;;;;;15.45;13.65;;;;;;;18.83;71.50;101274.94;5069516;27;20036;-50
2021/06/12 08:29:48;;;;;;;15.32;13.65;;;;;;;18.76;72.18;101268.09;5070446;27;20036;-52
2021/06/12 08:32:14;;;;;;;16.67;14.30;;;;;;;18.93;72.75;101272.91;5069257;28;20029;-55
2021/06/12 08:34:40;;;;;;;21.20;15.38;;;;;;;18.92;72.52;101275.59;5071989;27;20047;-54
2021/06/12 08:37:08;;;;;;;17.20;14.65;;;;;;;18.88;71.72;101274.81;5065005;28;20114;-52
2021/06/12 08:39:33;;;;;;;16.88;14.75;;;;;;;18.70;72.56;101271.75;5069176;27;20158;-50
2021/06/12 08:41:59;;;;;;;17.05;14.50;;;;;;;18.63;72.52;101269.34;5071398;28;20139;-51
2021/06/12 08:44:28;;;;;;;17.02;14.88;;;;;;;18.82;72.36;101272.34;5070488;28;20130;-50
2021/06/12 08:46:53;;;;;;;17.23;15.27;;;;;;;18.49;73.30;101285.63;5070667;27;20041;-51
2021/06/12 08:49:20;;;;;;;17.42;15.32;;;;;;;18.59;72.74;101284.44;5070330;27;20453;-51
2021/06/12 08:51:48;;;;;;;16.80;14.85;;;;;;;18.33;73.36;101287.81;5067278;28;20036;-50
2021/06/12 08:54:15;;;;;;;;;;;;;;;18.52;73.48;101281.09;5076292;27;20484;-54
2021/06/12 08:56:42;;;;;;;18.25;15.40;;;;;;;18.43;73.11;101291.06;5069193;28;19934;-52
2021/06/12 08:59:11;;;;;;;18.52;14.90;;;;;;;18.40;74.57;101289.41;5069805;27;20509;-50
2021/06/12 09:01:36;;;;;;;17.55;15.75;;;;;;;18.20;74.28;101287.28;5080788;27;20377;-50
2021/06/12 09:04:06;;;;;;;18.30;16.27;;;;;;;18.14;74.85;101290.97;5071171;28;20028;-52
2021/06/12 09:06:32;;;;;;;20.60;16.58;;;;;;;18.32;74.66;101309.91;5068535;28;20087;-50
2021/06/12 09:08:58;;;;;;;19.02;16.40;;;;;;;18.24;75.00;101303.97;5072377;27;20119;-53
2021/06/12 09:11:32;;;;;;;23.23;18.40;;;;;;;17.92;76.67;101318.88;5067701;28;20439;-50
2021/06/12 09:14:01;;;;;;;21.92;18.00;;;;;;;18.06;76.48;101307.94;5072050;27;20375;-50
2021/06/12 09:16:39;;;;;;;22.00;17.42;;;;;;;18.01;77.69;101302.75;5064017;27;20032;-51
2021/06/12 09:19:07;;;;;;;22.45;19.13;;;;;;;17.76;78.93;101307.78;5066132;28;20016;-49
2021/06/12 09:21:57;;;;;;;20.85;18.10;;;;;;;17.67;77.78;101309.72;5070095;28;20355;-50
2021/06/12 09:24:37;;;;;;;20.48;18.27;;;;;;;17.85;78.22;101313.69;5067654;27;20135;-53
2021/06/12 09:27:16;;;;;;;22.27;19.00;;;;;;;17.84;77.57;101317.25;5067416;27;20036;-50
2021/06/12 09:29:44;;;;;;;19.73;17.58;;;;;;;17.97;76.98;101317.84;5072535;28;20067;-50
2021/06/12 09:32:18;;;;;;;23.10;18.85;;;;;;;17.85;77.31;101318.13;5056788;28;20152;-49
2021/06/12 09:34:48;;;;;;;22.10;16.98;;;;;;;17.94;76.73;101311.75;5069724;28;20119;-50
2021/06/12 09:37:19;;;;;;;18.92;16.92;;;;;;;18.15;75.26;101310.34;5068934;28;20113;-52
2021/06/12 09:39:56;;;;;;;18.55;16.42;;;;;;;17.97;76.61;101307.28;5069582;28;20429;-51
2021/06/12 09:42:43;;;;;;;19.05;16.90;;;;;;;18.03;77.33;101311.53;5069644;28;20047;-50
2021/06/12 09:45:11;;;;;;;19.60;15.23;;;;;;;18.30;75.35;101312.56;5069160;28;20032;-51
2021/06/12 09:47:37;;;;;;;18.83;16.02;;;;;;;18.41;75.29;101309.66;5068083;28;20378;-52
2021/06/12 09:50:06;;;;;;;18.35;16.45;;;;;;;18.62;75.48;101321.44;5068871;28;20056;-50
2021/06/12 09:52:46;;;;;;;20.20;16.23;;;;;;;18.80;72.60;101316.53;5068707;28;20041;-50
2021/06/12 09:55:26;;;;;;;17.90;15.73;;;;;;;18.76;71.93;101315.75;5070806;28;20081;-50
2021/06/12 09:57:52;;;;;;;20.60;16.55;;;;;;;18.49;72.74;101317.38;5074313;28;20574;-50
2021/06/12 10:00:30;;;;;;;17.00;15.25;;;;;;;18.60;73.80;101325.03;5068780;27;20047;-52
2021/06/12 10:02:56;;;;;;;22.33;15.20;;;;;;;18.74;72.07;101322.00;5071077;28;20175;-54
2021/06/12 10:05:22;;;;;;;18.85;16.20;;;;;;;18.35;73.14;101323.06;5072984;27;20074;-50
2021/06/12 10:07:49;;;;;;;20.75;16.58;;;;;;;18.56;73.74;101326.91;5069167;28;20456;-49
2021/06/12 10:10:16;;;;;;;17.75;15.10;;;;;;;18.52;73.17;101327.88;5068722;28;20066;-51
2021/06/12 10:12:42;;;;;;;18.85;15.20;;;;;;;18.66;72.61;101324.84;5068750;27;20048;-50
2021/06/12 10:15:11;;;;;;;17.17;15.00;;;;;;;18.70;72.11;101322.06;5065158;28;20051;-50
2021/06/12 10:17:48;;;;;;;18.50;14.15;;;;;;;18.68;73.05;101325.69;5065860;27;20113;-49
2021/06/12 10:20:18;;;;;;;16.23;14.48;;;;;;;18.84;72.75;101331.41;5068386;27;20419;-50
2021/06/12 10:22:45;;;;;;;19.88;15.35;;;;;;;19.01;72.50;101334.47;5051877;28;20557;-51
2021/06/12 10:25:13;;;;;;;16.98;15.02;;;;;;;18.77;73.03;101329.84;5071769;28;20028;-50
2021/06/12 10:27:41;;;;;;;17.65;14.05;;;;;;;18.86;73.16;101326.97;5070255;28;20481;-50
2021/06/12 10:30:08;;;;;;;17.05;14.82;;;;;;;18.97;73.10;101332.84;5066628;27;20144;-51
2021/06/12 10:32:35;;;;;;;16.45;13.90;;;;;;;19.16;71.79;101327.88;5065123;27;20088;-50
2021/06/12 10:35:03;;;;;;;16.58;14.02;;;;;;;19.03;71.53;101322.03;5063878;27;20043;-50
2021/06/12 10:37:47;;;;;;;14.57;11.70;;;;;;;19.23;71.55;101331.19;5066695;27;20704;-51
2021/06/12 10:40:14;;;;;;;15.43;11.80;;;;;;;19.42;70.69;101335.94;5072052;28;20078;-50
2021/06/12 10:42:40;;;;;;;16.42;12.85;;;;;;;19.49;69.69;101340.13;5067759;28;20106;-51
2021/06/12 10:45:12;;;;;;;17.25;13.57;;;;;;;19.57;69.43;101333.66;5065042;28;20480;-54
2021/06/12 10:47:43;;;;;;;16.63;13.98;;;;;;;19.44;69.27;101331.44;5067053;27;20040;-51
2021/06/12 10:50:27;;;;;;;16.58;13.38;;;;;;;19.50;68.81;101325.94;5065799;28;20142;-51
2021/06/12 10:53:12;;;;;;;14.43;12.38;;;;;;;19.59;69.48;101330.94;5064984;28;20121;-50
2021/06/12 10:55:54;;;;;;;18.92;12.32;;;;;;;19.55;69.51;101332.00;5068680;28;20028;-50
2021/06/12 10:58:29;;;;;;;15.75;12.13;;;;;;;19.36;70.30;101324.59;5068556;28;20133;-51
2021/06/12 11:01:14;;;;;;;17.35;13.02;;;;;;;19.45;70.27;101335.81;5067532;28;20075;-53
2021/06/12 11:04:13;;;;;;;17.42;13.15;;;;;;;19.28;71.15;101337.22;5064443;28;20044;-52
2021/06/12 11:06:44;;;;;;;18.13;13.07;;;;;;;19.41;69.91;101332.38;5068583;27;20514;-51
2021/06/12 11:09:12;;;;;;;18.08;12.77;;;;;;;19.39;69.50;101332.44;5066387;28;20071;-50
2021/06/12 11:11:38;;;;;;;18.65;12.40;;;;;;;19.53;69.91;101331.16;5066679;27;20302;-51
2021/06/12 11:14:24;;;;;;;16.67;13.38;;;;;;;19.65;68.72;101336.06;5067847;28;20047;-50
2021/06/12 11:17:09;;;;;;;17.67;13.55;;;;;;;19.65;67.91;101330.75;5071548;28;20044;-51
2021/06/12 11:19:35;;;;;;;18.25;13.13;;;;;;;19.61;69.12;101323.81;5065708;28;20547;-51
2021/06/12 11:22:25;;;;;;;18.52;13.00;;;;;;;20.00;67.56;101322.59;5048525;28;20036;-50
2021/06/12 11:25:08;;;;;;;20.05;14.20;;;;;;;20.07;67.32;101317.00;5067167;28;22248;-50